Seabourn Sojourn — C6YA5 — position and weather

sailwx.info

Track history (hours):
 
Tides and Currents Weather Stations Pressure Air Temp Water Temp Dewpoint Dewpoint Depression Visibility Wind Speed Wind Dir Waves Ship Positions

Seabourn Sojourn

Last reported at 2020-Aug-09 04:00 UTC. Time now 2020-Aug-09 05:41 UTC.
Position N 09°54' W 084°54'.

Length 197 m; draft 6.6 m.

Type: Ship. MMSI: 311027100.

Barometer 1012.0 mb

Date/timePositionNaut miles runAvg speedWind from/ knotsBaromVisibWave heightAir tempDewpointWater temp
2020-Aug-09 04:00N 09°54' W 084°54'0 0.0 1012.0
2020-Aug-09 03:00N 09°54' W 084°54'0 0.0 1012.0
2020-Aug-09 00:00N 09°54' W 084°54'0 0.0 1010.0
2020-Aug-08 23:00N 09°54' W 084°54'0 0.0 1010.0
2020-Aug-08 22:00N 09°54' W 084°54'0 0.0 1010.0
2020-Aug-08 15:00N 09°54' W 084°54'0 0.0 1013.0
2020-Aug-08 14:00N 09°54' W 084°54'0 0.0 1013.0
2020-Aug-08 13:00N 09°54' W 084°54'0 0.0 1013.0
2020-Aug-08 12:00N 09°54' W 084°54'0 0.0 1012.0
2020-Aug-08 11:00N 09°54' W 084°54'0 0.0 1012.0
2020-Aug-08 10:00N 09°54' W 084°54'0 0.0 090 / 31012.0 5.4 26.0
2020-Aug-08 07:00N 09°54' W 084°54'0 0.0 090 / 31013.0 5.4 26.0
2020-Aug-08 06:00N 09°54' W 084°54'0 0.0 090 / 31013.0 5.4 26.0
2020-Aug-08 04:00N 09°54' W 084°54'0 0.0
2020-Aug-08 03:00N 09°54' W 084°54'0 0.0 1013.0
2020-Aug-08 02:00N 09°54' W 084°54'0 0.0 1012.0
2020-Aug-08 00:00N 09°54' W 084°54'0 0.0 1011.0
2020-Aug-07 23:00N 09°54' W 084°54'0 0.0 1011.0
2020-Aug-07 20:00N 09°54' W 084°54'0 0.0 090 / 31013.0 5.4 26.0
2020-Aug-07 15:00N 09°54' W 084°54'0 0.0 1013.0
2020-Aug-07 14:00N 09°54' W 084°54'0 0.0 1013.0
2020-Aug-07 13:00N 09°54' W 084°54'0 0.0 1012.0
2020-Aug-07 12:00N 09°54' W 084°54'0 0.0 1012.0
2020-Aug-07 11:00N 09°54' W 084°54'0 0.0 1012.0
2020-Aug-07 09:00N 09°54' W 084°54'0 0.0 090 / 31012.0 5.4 26.0
2020-Aug-07 08:00N 09°54' W 084°54'0 0.0 090 / 31012.0 5.4 26.0
2020-Aug-07 00:00N 09°54' W 084°54'0 0.0 1012.0
2020-Aug-06 23:00N 09°54' W 084°54'48 4.0 1011.0
2020-Aug-06 11:00N 09°12' W 084°30'1313.4 080 / 31010.0 26.0 31.3
2020-Aug-06 10:00N 09°00' W 084°24'1313.4 030 / 71010.0 26.0 31.4
2020-Aug-06 09:00N 08°48' W 084°18'8 8.4 110 / 111010.0 26.3 31.4
2020-Aug-06 08:00N 08°42' W 084°12'3517.4 100 / 61011.0
2020-Aug-06 06:00N 08°12' W 083°54'9113.0 250 / 61012.0 25.9 31.2
2020-Aug-05 23:00N 07°24' W 082°36'2512.7 1012.0
2020-Aug-05 21:00N 07°06' W 082°18'3216.1 230 / 121012.0
2020-Aug-05 19:00N 06°54' W 081°48'1211.9 230 / 181013.0 5.4 24.7 30.1
2020-Aug-05 18:00N 06°54' W 081°36'7110.2 220 / 101014.0 5.4 24.2 30.0
2020-Aug-05 11:00N 06°54' W 080°24'1211.9 1011.0
2020-Aug-05 10:00N 06°54' W 080°12'2512.7 1011.0
2020-Aug-05 08:00N 07°12' W 079°54'8 8.5 070 / 101012.0 2.2 25.1 31.0
2020-Aug-05 07:00N 07°18' W 079°48'1716.9 030 / 151013.0 2.2 23.9 31.1
2020-Aug-05 06:00N 07°30' W 079°36'38 7.6 080 / 101013.0 25.7 31.1
2020-Aug-05 01:00N 08°06' W 079°24'42 3.9 1015.0
2020-Aug-04 14:00N 08°48' W 079°30'0 0.0 1014.0
2020-Aug-04 13:00N 08°48' W 079°30'0 0.0 1013.0
2020-Aug-04 12:00N 08°48' W 079°30'0 0.0 1013.0
2020-Aug-04 11:00N 08°48' W 079°30'0 0.0 1012.0
2020-Aug-04 10:00N 08°48' W 079°30'0 0.0 1012.0
2020-Aug-04 08:00N 08°48' W 079°30'0 0.0 130 / 101012.0 5.4 26.0
2020-Aug-04 07:00N 08°48' W 079°30'0 0.0 130 / 101012.0 5.4 26.0
2020-Aug-03 22:00N 08°48' W 079°30'0 0.0 1011.0
2020-Aug-03 21:00N 08°48' W 079°30'0 0.0 1011.0
2020-Aug-03 19:00N 08°48' W 079°30'0 0.0 080 / 111014.0
2020-Aug-03 18:00N 08°48' W 079°30'0 0.0 080 / 111014.0
2020-Aug-03 14:00N 08°48' W 079°30'0 0.0 1014.0
2020-Aug-03 13:00N 08°48' W 079°30'0 0.0 1013.0
2020-Aug-03 12:00N 08°48' W 079°30'0 0.0 1011.0
2020-Aug-03 11:00N 08°48' W 079°30'0 0.0 1012.0
2020-Aug-03 09:00N 08°48' W 079°30'0 0.0 080 / 111011.0
2020-Aug-03 08:00N 08°48' W 079°30'0 0.0 080 / 111011.0
2020-Aug-03 07:00N 08°48' W 079°30'0 0.0 080 / 111011.0
2020-Aug-03 01:00N 08°48' W 079°30'0 0.0 1011.0
2020-Aug-02 23:00N 08°48' W 079°30'0 0.0 1009.0
2020-Aug-02 22:00N 08°48' W 079°30'0 0.0 1009.0
2020-Aug-02 21:00N 08°48' W 079°30'0 0.0 1009.0
2020-Aug-02 19:00N 08°48' W 079°30'0 0.0 020 / 231011.0 5.4 27.8 30.8
2020-Aug-02 14:00N 08°48' W 079°30'0 0.0 1012.0
2020-Aug-02 13:00N 08°48' W 079°30'0 0.0 1012.0
2020-Aug-02 12:00N 08°48' W 079°30'0 0.0 1011.0
2020-Aug-02 11:00N 08°48' W 079°30'0 0.0 1011.0
2020-Aug-02 10:00N 08°48' W 079°30'0 0.0 1010.0
2020-Aug-02 09:00N 08°48' W 079°30'0 0.0 330 / 121010.0 5.4 27.8 30.8
2020-Aug-02 08:00N 08°48' W 079°30'0 0.0 330 / 121010.0 5.4 27.8 30.8
2020-Aug-02 06:00N 08°48' W 079°30'0 0.0 330 / 121010.0 5.4 27.8 30.8
2020-Aug-01 23:00N 08°48' W 079°30'0 0.0 1009.0
2020-Aug-01 22:00N 08°48' W 079°30'0 0.0 1009.0
2020-Aug-01 21:00N 08°48' W 079°30'61 5.6 1008.0
2020-Aug-01 10:00N 07°48' W 079°18'6 6.0 330 / 121011.0 27.8 30.8
2020-Aug-01 09:00N 07°42' W 079°18'4210.6 350 / 151011.0 28.0 30.9
2020-Aug-01 05:00N 07°12' W 079°48'68 8.5 010 / 161012.0 5.4
2020-Jul-31 21:00N 06°54' W 080°54'1211.9 220 / 51009.0 29.4 29.9
2020-Jul-31 20:00N 06°54' W 081°06'1313.3 210 / 61009.0 29.4 29.9
2020-Jul-31 19:00N 06°48' W 081°18'8310.4 1010.010.8 29.8 29.9
2020-Jul-31 11:00N 07°18' W 082°36'1313.3 1010.0
2020-Jul-31 10:00N 07°24' W 082°48'13511.3 1010.0
2020-Jul-30 22:00N 09°00' W 084°24'2210.8 1009.0
2020-Jul-30 20:00N 09°18' W 084°36'1313.4 230 / 141010.010.8 29.325.731.5
2020-Jul-30 19:00N 09°30' W 084°42'8 8.4 230 / 141010.010.8 28.925.330.4
2020-Jul-30 18:00N 09°36' W 084°48'19 9.5 190 / 121011.010.8 34.0
2020-Jul-30 16:00N 09°54' W 084°54'0 0.0 1012.0
2020-Jul-30 15:00N 09°54' W 084°54'0 0.0 1012.0
2020-Jul-30 14:00N 09°54' W 084°54'0 0.0 1011.0
2020-Jul-30 13:00N 09°54' W 084°54'0 0.0 1011.0
2020-Jul-30 12:00N 09°54' W 084°54'0 0.0 1010.0
2020-Jul-30 09:00N 09°54' W 084°54'0 0.0 180 / 71011.0 26.3
2020-Jul-30 08:00N 09°54' W 084°54'0 0.0 180 / 71011.0 26.3
2020-Jul-30 06:00N 09°54' W 084°54'   180 / 71011.0 26.3
Track history (hours):
 
Tides and Currents Weather Stations Pressure Air Temp Water Temp Dewpoint Dewpoint Depression Visibility Wind Speed Wind Dir Waves Ship Positions

Seabourn Sojourn

Last reported at 2020-Aug-09 04:00 UTC. Time now 2020-Aug-09 05:41 UTC.
Position N 09°54' W 084°54'.

Length 197 m; draft 6.6 m.

Type: Ship. MMSI: 311027100.

Barometer 1012.0 mb

Date/timePositionNaut miles runAvg speedWind from/ knotsBaromVisibWave heightAir tempDewpointWater temp
2020-Aug-09 04:00N 09°54' W 084°54'0 0.0 1012.0
2020-Aug-09 03:00N 09°54' W 084°54'0 0.0 1012.0
2020-Aug-09 00:00N 09°54' W 084°54'0 0.0 1010.0
2020-Aug-08 23:00N 09°54' W 084°54'0 0.0 1010.0
2020-Aug-08 22:00N 09°54' W 084°54'0 0.0 1010.0
2020-Aug-08 15:00N 09°54' W 084°54'0 0.0 1013.0
2020-Aug-08 14:00N 09°54' W 084°54'0 0.0 1013.0
2020-Aug-08 13:00N 09°54' W 084°54'0 0.0 1013.0
2020-Aug-08 12:00N 09°54' W 084°54'0 0.0 1012.0
2020-Aug-08 11:00N 09°54' W 084°54'0 0.0 1012.0
2020-Aug-08 10:00N 09°54' W 084°54'0 0.0 090 / 31012.0 5.4 26.0
2020-Aug-08 07:00N 09°54' W 084°54'0 0.0 090 / 31013.0 5.4 26.0
2020-Aug-08 06:00N 09°54' W 084°54'0 0.0 090 / 31013.0 5.4 26.0
2020-Aug-08 04:00N 09°54' W 084°54'0 0.0
2020-Aug-08 03:00N 09°54' W 084°54'0 0.0 1013.0
2020-Aug-08 02:00N 09°54' W 084°54'0 0.0 1012.0
2020-Aug-08 00:00N 09°54' W 084°54'0 0.0 1011.0
2020-Aug-07 23:00N 09°54' W 084°54'0 0.0 1011.0
2020-Aug-07 20:00N 09°54' W 084°54'0 0.0 090 / 31013.0 5.4 26.0
2020-Aug-07 15:00N 09°54' W 084°54'0 0.0 1013.0
2020-Aug-07 14:00N 09°54' W 084°54'0 0.0 1013.0
2020-Aug-07 13:00N 09°54' W 084°54'0 0.0 1012.0
2020-Aug-07 12:00N 09°54' W 084°54'0 0.0 1012.0
2020-Aug-07 11:00N 09°54' W 084°54'0 0.0 1012.0
2020-Aug-07 09:00N 09°54' W 084°54'0 0.0 090 / 31012.0 5.4 26.0
2020-Aug-07 08:00N 09°54' W 084°54'0 0.0 090 / 31012.0 5.4 26.0
2020-Aug-07 00:00N 09°54' W 084°54'0 0.0 1012.0
2020-Aug-06 23:00N 09°54' W 084°54'48 4.0 1011.0
2020-Aug-06 11:00N 09°12' W 084°30'1313.4 080 / 31010.0 26.0 31.3
2020-Aug-06 10:00N 09°00' W 084°24'1313.4 030 / 71010.0 26.0 31.4
2020-Aug-06 09:00N 08°48' W 084°18'8 8.4 110 / 111010.0 26.3 31.4
2020-Aug-06 08:00N 08°42' W 084°12'3517.4 100 / 61011.0
2020-Aug-06 06:00N 08°12' W 083°54'9113.0 250 / 61012.0 25.9 31.2
2020-Aug-05 23:00N 07°24' W 082°36'2512.7 1012.0
2020-Aug-05 21:00N 07°06' W 082°18'3216.1 230 / 121012.0
2020-Aug-05 19:00N 06°54' W 081°48'1211.9 230 / 181013.0 5.4 24.7 30.1
2020-Aug-05 18:00N 06°54' W 081°36'7110.2 220 / 101014.0 5.4 24.2 30.0
2020-Aug-05 11:00N 06°54' W 080°24'1211.9 1011.0
2020-Aug-05 10:00N 06°54' W 080°12'2512.7 1011.0
2020-Aug-05 08:00N 07°12' W 079°54'8 8.5 070 / 101012.0 2.2 25.1 31.0
2020-Aug-05 07:00N 07°18' W 079°48'1716.9 030 / 151013.0 2.2 23.9 31.1
2020-Aug-05 06:00N 07°30' W 079°36'38 7.6 080 / 101013.0 25.7 31.1
2020-Aug-05 01:00N 08°06' W 079°24'42 3.9 1015.0
2020-Aug-04 14:00N 08°48' W 079°30'0 0.0 1014.0
2020-Aug-04 13:00N 08°48' W 079°30'0 0.0 1013.0
2020-Aug-04 12:00N 08°48' W 079°30'0 0.0 1013.0
2020-Aug-04 11:00N 08°48' W 079°30'0 0.0 1012.0
2020-Aug-04 10:00N 08°48' W 079°30'0 0.0 1012.0
2020-Aug-04 08:00N 08°48' W 079°30'0 0.0 130 / 101012.0 5.4 26.0
2020-Aug-04 07:00N 08°48' W 079°30'0 0.0 130 / 101012.0 5.4 26.0
2020-Aug-03 22:00N 08°48' W 079°30'0 0.0 1011.0
2020-Aug-03 21:00N 08°48' W 079°30'0 0.0 1011.0
2020-Aug-03 19:00N 08°48' W 079°30'0 0.0 080 / 111014.0
2020-Aug-03 18:00N 08°48' W 079°30'0 0.0 080 / 111014.0
2020-Aug-03 14:00N 08°48' W 079°30'0 0.0 1014.0
2020-Aug-03 13:00N 08°48' W 079°30'0 0.0 1013.0
2020-Aug-03 12:00N 08°48' W 079°30'0 0.0 1011.0
2020-Aug-03 11:00N 08°48' W 079°30'0 0.0 1012.0
2020-Aug-03 09:00N 08°48' W 079°30'0 0.0 080 / 111011.0
2020-Aug-03 08:00N 08°48' W 079°30'0 0.0 080 / 111011.0
2020-Aug-03 07:00N 08°48' W 079°30'0 0.0 080 / 111011.0
2020-Aug-03 01:00N 08°48' W 079°30'0 0.0 1011.0
2020-Aug-02 23:00N 08°48' W 079°30'0 0.0 1009.0
2020-Aug-02 22:00N 08°48' W 079°30'0 0.0 1009.0
2020-Aug-02 21:00N 08°48' W 079°30'0 0.0 1009.0
2020-Aug-02 19:00N 08°48' W 079°30'0 0.0 020 / 231011.0 5.4 27.8 30.8
2020-Aug-02 14:00N 08°48' W 079°30'0 0.0 1012.0
2020-Aug-02 13:00N 08°48' W 079°30'0 0.0 1012.0
2020-Aug-02 12:00N 08°48' W 079°30'0 0.0 1011.0
2020-Aug-02 11:00N 08°48' W 079°30'0 0.0 1011.0
2020-Aug-02 10:00N 08°48' W 079°30'0 0.0 1010.0
2020-Aug-02 09:00N 08°48' W 079°30'0 0.0 330 / 121010.0 5.4 27.8 30.8
2020-Aug-02 08:00N 08°48' W 079°30'0 0.0 330 / 121010.0 5.4 27.8 30.8
2020-Aug-02 06:00N 08°48' W 079°30'0 0.0 330 / 121010.0 5.4 27.8 30.8
2020-Aug-01 23:00N 08°48' W 079°30'0 0.0 1009.0
2020-Aug-01 22:00N 08°48' W 079°30'0 0.0 1009.0
2020-Aug-01 21:00N 08°48' W 079°30'61 5.6 1008.0
2020-Aug-01 10:00N 07°48' W 079°18'6 6.0 330 / 121011.0 27.8 30.8
2020-Aug-01 09:00N 07°42' W 079°18'4210.6 350 / 151011.0 28.0 30.9
2020-Aug-01 05:00N 07°12' W 079°48'68 8.5 010 / 161012.0 5.4
2020-Jul-31 21:00N 06°54' W 080°54'1211.9 220 / 51009.0 29.4 29.9
2020-Jul-31 20:00N 06°54' W 081°06'1313.3 210 / 61009.0 29.4 29.9
2020-Jul-31 19:00N 06°48' W 081°18'8310.4 1010.010.8 29.8 29.9
2020-Jul-31 11:00N 07°18' W 082°36'1313.3 1010.0
2020-Jul-31 10:00N 07°24' W 082°48'13511.3 1010.0
2020-Jul-30 22:00N 09°00' W 084°24'2210.8 1009.0
2020-Jul-30 20:00N 09°18' W 084°36'1313.4 230 / 141010.010.8 29.325.731.5
2020-Jul-30 19:00N 09°30' W 084°42'8 8.4 230 / 141010.010.8 28.925.330.4
2020-Jul-30 18:00N 09°36' W 084°48'19 9.5 190 / 121011.010.8 34.0
2020-Jul-30 16:00N 09°54' W 084°54'0 0.0 1012.0
2020-Jul-30 15:00N 09°54' W 084°54'0 0.0 1012.0
2020-Jul-30 14:00N 09°54' W 084°54'0 0.0 1011.0
2020-Jul-30 13:00N 09°54' W 084°54'0 0.0 1011.0
2020-Jul-30 12:00N 09°54' W 084°54'0 0.0 1010.0
2020-Jul-30 09:00N 09°54' W 084°54'0 0.0 180 / 71011.0 26.3
2020-Jul-30 08:00N 09°54' W 084°54'0 0.0 180 / 71011.0 26.3
2020-Jul-30 06:00N 09°54' W 084°54'   180 / 71011.0 26.3

Dump ship's entire track history